sensor_id;sensor_type;location;lat;lon;timestamp;P1;durP1;ratioP1;P2;durP2;ratioP2
11524;SDS011;5819;49.648;8.330;2023-09-30T00:02:19;5.65;;;3.42;;
11524;SDS011;5819;49.648;8.330;2023-09-30T00:04:48;5.82;;;3.38;;
11524;SDS011;5819;49.648;8.330;2023-09-30T00:07:15;8.38;;;3.42;;
11524;SDS011;5819;49.648;8.330;2023-09-30T00:09:44;6.13;;;2.60;;
11524;SDS011;5819;49.648;8.330;2023-09-30T00:12:12;4.93;;;3.25;;
11524;SDS011;5819;49.648;8.330;2023-09-30T00:14:40;4.60;;;3.30;;
11524;SDS011;5819;49.648;8.330;2023-09-30T00:17:08;5.63;;;3.30;;
11524;SDS011;5819;49.648;8.330;2023-09-30T00:19:37;6.65;;;3.20;;
11524;SDS011;5819;49.648;8.330;2023-09-30T00:22:05;9.40;;;3.30;;
11524;SDS011;5819;49.648;8.330;2023-09-30T00:24:33;10.68;;;3.35;;
11524;SDS011;5819;49.648;8.330;2023-09-30T00:27:01;6.88;;;3.28;;
11524;SDS011;5819;49.648;8.330;2023-09-30T00:29:29;5.45;;;3.22;;
11524;SDS011;5819;49.648;8.330;2023-09-30T00:31:57;6.68;;;3.63;;
11524;SDS011;5819;49.648;8.330;2023-09-30T00:34:25;6.82;;;3.30;;
11524;SDS011;5819;49.648;8.330;2023-09-30T00:36:54;6.55;;;3.70;;
11524;SDS011;5819;49.648;8.330;2023-09-30T00:39:22;6.88;;;3.70;;
11524;SDS011;5819;49.648;8.330;2023-09-30T00:41:53;7.30;;;3.40;;
11524;SDS011;5819;49.648;8.330;2023-09-30T00:44:21;8.55;;;3.70;;
11524;SDS011;5819;49.648;8.330;2023-09-30T00:46:49;6.60;;;3.70;;
11524;SDS011;5819;49.648;8.330;2023-09-30T00:49:17;4.45;;;3.38;;
11524;SDS011;5819;49.648;8.330;2023-09-30T00:51:46;7.68;;;3.80;;
11524;SDS011;5819;49.648;8.330;2023-09-30T00:54:17;7.88;;;3.78;;
11524;SDS011;5819;49.648;8.330;2023-09-30T00:56:46;6.00;;;3.58;;
11524;SDS011;5819;49.648;8.330;2023-09-30T00:59:17;5.43;;;3.60;;
11524;SDS011;5819;49.648;8.330;2023-09-30T01:01:46;15.20;;;3.92;;
11524;SDS011;5819;49.648;8.330;2023-09-30T01:04:14;5.32;;;3.25;;
11524;SDS011;5819;49.648;8.330;2023-09-30T01:06:44;5.57;;;3.05;;
11524;SDS011;5819;49.648;8.330;2023-09-30T01:09:14;5.60;;;3.58;;
11524;SDS011;5819;49.648;8.330;2023-09-30T01:11:43;6.95;;;3.00;;
11524;SDS011;5819;49.648;8.330;2023-09-30T01:14:23;6.45;;;3.38;;
11524;SDS011;5819;49.648;8.330;2023-09-30T01:16:53;8.60;;;3.53;;
11524;SDS011;5819;49.648;8.330;2023-09-30T01:19:22;9.13;;;4.60;;
11524;SDS011;5819;49.648;8.330;2023-09-30T01:21:54;8.77;;;4.32;;
11524;SDS011;5819;49.648;8.330;2023-09-30T01:24:27;8.77;;;4.40;;
11524;SDS011;5819;49.648;8.330;2023-09-30T01:26:56;7.07;;;4.75;;
11524;SDS011;5819;49.648;8.330;2023-09-30T01:29:25;8.50;;;4.40;;
11524;SDS011;5819;49.648;8.330;2023-09-30T01:31:53;8.75;;;4.68;;
11524;SDS011;5819;49.648;8.330;2023-09-30T01:34:22;7.10;;;4.45;;
11524;SDS011;5819;49.648;8.330;2023-09-30T01:36:50;8.57;;;5.10;;
11524;SDS011;5819;49.648;8.330;2023-09-30T01:39:19;10.10;;;4.60;;
11524;SDS011;5819;49.648;8.330;2023-09-30T01:41:47;9.10;;;4.18;;
11524;SDS011;5819;49.648;8.330;2023-09-30T01:44:15;7.70;;;4.20;;
11524;SDS011;5819;49.648;8.330;2023-09-30T01:46:43;6.28;;;3.83;;
11524;SDS011;5819;49.648;8.330;2023-09-30T01:49:11;8.85;;;4.68;;
11524;SDS011;5819;49.648;8.330;2023-09-30T01:51:39;9.25;;;4.60;;
11524;SDS011;5819;49.648;8.330;2023-09-30T01:54:07;6.88;;;4.57;;
11524;SDS011;5819;49.648;8.330;2023-09-30T01:56:37;8.02;;;3.80;;
11524;SDS011;5819;49.648;8.330;2023-09-30T01:59:05;7.85;;;3.97;;
11524;SDS011;5819;49.648;8.330;2023-09-30T02:01:33;5.25;;;3.70;;
11524;SDS011;5819;49.648;8.330;2023-09-30T02:04:01;6.05;;;4.18;;
11524;SDS011;5819;49.648;8.330;2023-09-30T02:06:29;6.38;;;4.30;;
11524;SDS011;5819;49.648;8.330;2023-09-30T02:08:57;7.07;;;4.03;;
11524;SDS011;5819;49.648;8.330;2023-09-30T02:11:25;7.90;;;4.25;;
11524;SDS011;5819;49.648;8.330;2023-09-30T02:13:54;7.38;;;4.40;;
11524;SDS011;5819;49.648;8.330;2023-09-30T02:16:23;7.78;;;4.35;;
11524;SDS011;5819;49.648;8.330;2023-09-30T02:18:51;6.43;;;4.57;;
11524;SDS011;5819;49.648;8.330;2023-09-30T02:21:20;10.75;;;5.53;;
11524;SDS011;5819;49.648;8.330;2023-09-30T02:23:49;9.05;;;4.60;;
11524;SDS011;5819;49.648;8.330;2023-09-30T02:26:22;7.97;;;5.68;;
11524;SDS011;5819;49.648;8.330;2023-09-30T02:28:51;7.55;;;4.90;;
11524;SDS011;5819;49.648;8.330;2023-09-30T02:31:21;8.70;;;5.03;;
11524;SDS011;5819;49.648;8.330;2023-09-30T02:33:50;9.55;;;6.07;;
11524;SDS011;5819;49.648;8.330;2023-09-30T02:36:18;6.28;;;4.78;;
11524;SDS011;5819;49.648;8.330;2023-09-30T02:38:46;8.13;;;5.72;;
11524;SDS011;5819;49.648;8.330;2023-09-30T02:41:15;10.02;;;6.22;;
11524;SDS011;5819;49.648;8.330;2023-09-30T02:43:43;6.97;;;6.10;;
11524;SDS011;5819;49.648;8.330;2023-09-30T02:46:11;6.63;;;5.82;;
11524;SDS011;5819;49.648;8.330;2023-09-30T02:48:41;10.30;;;6.68;;
11524;SDS011;5819;49.648;8.330;2023-09-30T02:51:10;11.25;;;6.63;;
11524;SDS011;5819;49.648;8.330;2023-09-30T02:53:38;8.82;;;6.47;;
11524;SDS011;5819;49.648;8.330;2023-09-30T02:56:06;9.25;;;6.70;;
11524;SDS011;5819;49.648;8.330;2023-09-30T02:58:34;13.35;;;6.82;;
11524;SDS011;5819;49.648;8.330;2023-09-30T03:01:02;10.90;;;6.40;;
11524;SDS011;5819;49.648;8.330;2023-09-30T03:03:30;10.40;;;6.80;;
11524;SDS011;5819;49.648;8.330;2023-09-30T03:06:01;10.68;;;7.22;;
11524;SDS011;5819;49.648;8.330;2023-09-30T03:08:29;13.30;;;6.88;;
11524;SDS011;5819;49.648;8.330;2023-09-30T03:10:57;10.85;;;7.03;;
11524;SDS011;5819;49.648;8.330;2023-09-30T03:13:25;11.02;;;7.38;;
11524;SDS011;5819;49.648;8.330;2023-09-30T03:15:53;11.20;;;7.35;;
11524;SDS011;5819;49.648;8.330;2023-09-30T03:18:23;9.38;;;6.93;;
11524;SDS011;5819;49.648;8.330;2023-09-30T03:20:58;10.93;;;7.03;;
11524;SDS011;5819;49.648;8.330;2023-09-30T03:23:28;9.20;;;6.72;;
11524;SDS011;5819;49.648;8.330;2023-09-30T03:25:57;10.68;;;6.93;;
11524;SDS011;5819;49.648;8.330;2023-09-30T03:28:25;9.95;;;7.10;;
11524;SDS011;5819;49.648;8.330;2023-09-30T03:30:53;9.55;;;7.15;;
11524;SDS011;5819;49.648;8.330;2023-09-30T03:33:22;12.90;;;6.63;;
11524;SDS011;5819;49.648;8.330;2023-09-30T03:35:50;8.27;;;6.63;;
11524;SDS011;5819;49.648;8.330;2023-09-30T03:38:19;9.45;;;7.18;;
11524;SDS011;5819;49.648;8.330;2023-09-30T03:40:50;10.63;;;7.68;;
11524;SDS011;5819;49.648;8.330;2023-09-30T03:43:20;12.60;;;7.70;;
11524;SDS011;5819;49.648;8.330;2023-09-30T03:45:49;11.77;;;7.75;;
11524;SDS011;5819;49.648;8.330;2023-09-30T03:48:17;9.07;;;8.05;;
11524;SDS011;5819;49.648;8.330;2023-09-30T03:50:46;10.82;;;7.85;;
11524;SDS011;5819;49.648;8.330;2023-09-30T03:53:15;12.70;;;8.65;;
11524;SDS011;5819;49.648;8.330;2023-09-30T03:55:42;10.30;;;8.10;;
11524;SDS011;5819;49.648;8.330;2023-09-30T03:58:11;10.90;;;7.25;;
11524;SDS011;5819;49.648;8.330;2023-09-30T04:00:41;13.45;;;8.02;;
11524;SDS011;5819;49.648;8.330;2023-09-30T04:03:09;12.90;;;8.32;;
11524;SDS011;5819;49.648;8.330;2023-09-30T04:05:37;11.50;;;7.93;;
11524;SDS011;5819;49.648;8.330;2023-09-30T04:08:06;11.63;;;7.95;;
11524;SDS011;5819;49.648;8.330;2023-09-30T04:10:34;10.25;;;7.63;;
11524;SDS011;5819;49.648;8.330;2023-09-30T04:13:02;17.30;;;8.65;;
11524;SDS011;5819;49.648;8.330;2023-09-30T04:15:31;12.88;;;7.53;;
11524;SDS011;5819;49.648;8.330;2023-09-30T04:17:59;9.80;;;7.80;;
11524;SDS011;5819;49.648;8.330;2023-09-30T04:20:27;11.07;;;8.15;;
11524;SDS011;5819;49.648;8.330;2023-09-30T04:22:55;10.55;;;8.45;;
11524;SDS011;5819;49.648;8.330;2023-09-30T04:25:24;11.60;;;8.27;;
11524;SDS011;5819;49.648;8.330;2023-09-30T04:27:52;12.95;;;8.80;;
11524;SDS011;5819;49.648;8.330;2023-09-30T04:30:20;13.55;;;8.90;;
11524;SDS011;5819;49.648;8.330;2023-09-30T04:32:51;10.02;;;7.95;;
11524;SDS011;5819;49.648;8.330;2023-09-30T04:35:19;10.57;;;8.18;;
11524;SDS011;5819;49.648;8.330;2023-09-30T04:37:48;11.98;;;8.65;;
11524;SDS011;5819;49.648;8.330;2023-09-30T04:40:17;13.18;;;8.35;;
11524;SDS011;5819;49.648;8.330;2023-09-30T04:42:47;12.77;;;8.63;;
11524;SDS011;5819;49.648;8.330;2023-09-30T04:45:16;9.70;;;7.80;;
11524;SDS011;5819;49.648;8.330;2023-09-30T04:47:47;13.50;;;8.77;;
11524;SDS011;5819;49.648;8.330;2023-09-30T04:50:18;14.18;;;9.05;;
11524;SDS011;5819;49.648;8.330;2023-09-30T04:52:49;11.93;;;9.35;;
11524;SDS011;5819;49.648;8.330;2023-09-30T04:55:18;12.18;;;8.95;;
11524;SDS011;5819;49.648;8.330;2023-09-30T04:57:46;14.13;;;8.55;;
11524;SDS011;5819;49.648;8.330;2023-09-30T05:00:16;13.38;;;8.65;;
11524;SDS011;5819;49.648;8.330;2023-09-30T05:02:48;12.90;;;9.23;;
11524;SDS011;5819;49.648;8.330;2023-09-30T05:05:18;15.25;;;9.25;;
11524;SDS011;5819;49.648;8.330;2023-09-30T05:07:46;13.90;;;9.07;;
11524;SDS011;5819;49.648;8.330;2023-09-30T05:10:14;10.80;;;8.18;;
11524;SDS011;5819;49.648;8.330;2023-09-30T05:12:43;12.55;;;8.18;;
11524;SDS011;5819;49.648;8.330;2023-09-30T05:15:14;11.13;;;8.18;;
11524;SDS011;5819;49.648;8.330;2023-09-30T05:17:44;15.35;;;9.30;;
11524;SDS011;5819;49.648;8.330;2023-09-30T05:20:12;14.13;;;9.45;;
11524;SDS011;5819;49.648;8.330;2023-09-30T05:22:45;15.10;;;9.38;;
11524;SDS011;5819;49.648;8.330;2023-09-30T05:25:16;16.20;;;10.23;;
11524;SDS011;5819;49.648;8.330;2023-09-30T05:27:45;15.90;;;10.10;;
11524;SDS011;5819;49.648;8.330;2023-09-30T05:30:15;14.18;;;10.13;;
11524;SDS011;5819;49.648;8.330;2023-09-30T05:32:44;15.40;;;10.35;;
11524;SDS011;5819;49.648;8.330;2023-09-30T05:35:13;11.77;;;8.93;;
11524;SDS011;5819;49.648;8.330;2023-09-30T05:37:45;14.65;;;10.05;;
11524;SDS011;5819;49.648;8.330;2023-09-30T05:40:13;11.43;;;9.43;;
11524;SDS011;5819;49.648;8.330;2023-09-30T05:42:49;13.75;;;10.40;;
11524;SDS011;5819;49.648;8.330;2023-09-30T05:45:17;15.27;;;10.02;;
11524;SDS011;5819;49.648;8.330;2023-09-30T05:47:45;15.50;;;10.07;;
11524;SDS011;5819;49.648;8.330;2023-09-30T05:50:17;18.00;;;9.82;;
11524;SDS011;5819;49.648;8.330;2023-09-30T05:52:53;14.73;;;10.57;;
11524;SDS011;5819;49.648;8.330;2023-09-30T05:55:22;12.68;;;9.63;;
11524;SDS011;5819;49.648;8.330;2023-09-30T05:57:53;12.30;;;10.20;;
11524;SDS011;5819;49.648;8.330;2023-09-30T06:00:22;15.13;;;9.35;;
11524;SDS011;5819;49.648;8.330;2023-09-30T06:02:55;12.77;;;9.55;;
11524;SDS011;5819;49.648;8.330;2023-09-30T06:05:25;14.60;;;9.77;;
11524;SDS011;5819;49.648;8.330;2023-09-30T06:07:58;14.70;;;10.57;;
11524;SDS011;5819;49.648;8.330;2023-09-30T06:10:29;14.23;;;9.50;;
11524;SDS011;5819;49.648;8.330;2023-09-30T06:12:58;10.85;;;9.18;;
11524;SDS011;5819;49.648;8.330;2023-09-30T06:15:27;11.02;;;8.90;;
11524;SDS011;5819;49.648;8.330;2023-09-30T06:17:56;14.00;;;9.52;;
11524;SDS011;5819;49.648;8.330;2023-09-30T06:20:27;14.80;;;10.02;;
11524;SDS011;5819;49.648;8.330;2023-09-30T06:22:59;10.10;;;8.90;;
11524;SDS011;5819;49.648;8.330;2023-09-30T06:25:28;12.52;;;9.32;;
11524;SDS011;5819;49.648;8.330;2023-09-30T06:27:57;12.73;;;8.80;;
11524;SDS011;5819;49.648;8.330;2023-09-30T06:30:25;14.55;;;9.05;;
11524;SDS011;5819;49.648;8.330;2023-09-30T06:32:57;14.07;;;9.80;;
11524;SDS011;5819;49.648;8.330;2023-09-30T06:35:28;17.27;;;9.30;;
11524;SDS011;5819;49.648;8.330;2023-09-30T06:38:02;13.27;;;8.88;;
11524;SDS011;5819;49.648;8.330;2023-09-30T06:40:33;11.95;;;9.23;;
11524;SDS011;5819;49.648;8.330;2023-09-30T06:43:05;14.10;;;9.70;;
11524;SDS011;5819;49.648;8.330;2023-09-30T06:45:34;12.65;;;9.23;;
11524;SDS011;5819;49.648;8.330;2023-09-30T06:48:08;14.48;;;9.80;;
11524;SDS011;5819;49.648;8.330;2023-09-30T06:50:40;14.55;;;10.25;;
11524;SDS011;5819;49.648;8.330;2023-09-30T06:53:16;15.48;;;9.88;;
11524;SDS011;5819;49.648;8.330;2023-09-30T06:55:45;11.50;;;9.13;;
11524;SDS011;5819;49.648;8.330;2023-09-30T06:58:13;11.75;;;8.43;;
11524;SDS011;5819;49.648;8.330;2023-09-30T07:00:49;15.95;;;9.93;;
11524;SDS011;5819;49.648;8.330;2023-09-30T07:03:20;11.23;;;8.77;;
11524;SDS011;5819;49.648;8.330;2023-09-30T07:05:52;13.82;;;10.35;;
11524;SDS011;5819;49.648;8.330;2023-09-30T07:08:24;13.43;;;10.02;;
11524;SDS011;5819;49.648;8.330;2023-09-30T07:10:53;13.45;;;9.07;;
11524;SDS011;5819;49.648;8.330;2023-09-30T07:13:23;12.13;;;8.80;;
11524;SDS011;5819;49.648;8.330;2023-09-30T07:15:51;11.90;;;7.82;;
11524;SDS011;5819;49.648;8.330;2023-09-30T07:18:20;13.75;;;9.70;;
11524;SDS011;5819;49.648;8.330;2023-09-30T07:20:48;17.42;;;9.75;;
11524;SDS011;5819;49.648;8.330;2023-09-30T07:23:15;15.80;;;9.80;;
11524;SDS011;5819;49.648;8.330;2023-09-30T07:25:47;14.50;;;9.40;;
11524;SDS011;5819;49.648;8.330;2023-09-30T07:28:15;13.73;;;9.13;;
11524;SDS011;5819;49.648;8.330;2023-09-30T07:30:43;10.82;;;8.02;;
11524;SDS011;5819;49.648;8.330;2023-09-30T07:33:11;11.48;;;8.57;;
11524;SDS011;5819;49.648;8.330;2023-09-30T07:35:39;14.77;;;9.25;;
11524;SDS011;5819;49.648;8.330;2023-09-30T07:38:07;10.35;;;7.90;;
11524;SDS011;5819;49.648;8.330;2023-09-30T07:40:35;11.88;;;8.40;;
11524;SDS011;5819;49.648;8.330;2023-09-30T07:43:04;16.67;;;9.30;;
11524;SDS011;5819;49.648;8.330;2023-09-30T07:45:32;11.40;;;8.95;;
11524;SDS011;5819;49.648;8.330;2023-09-30T07:48:00;16.30;;;9.43;;
11524;SDS011;5819;49.648;8.330;2023-09-30T07:50:31;15.75;;;8.52;;
11524;SDS011;5819;49.648;8.330;2023-09-30T07:53:00;11.73;;;8.93;;
11524;SDS011;5819;49.648;8.330;2023-09-30T07:55:28;11.48;;;7.82;;
11524;SDS011;5819;49.648;8.330;2023-09-30T07:57:56;14.27;;;8.30;;
11524;SDS011;5819;49.648;8.330;2023-09-30T08:00:27;13.90;;;7.82;;
11524;SDS011;5819;49.648;8.330;2023-09-30T08:02:55;12.77;;;7.70;;
11524;SDS011;5819;49.648;8.330;2023-09-30T08:05:26;13.05;;;7.97;;
11524;SDS011;5819;49.648;8.330;2023-09-30T08:07:54;11.27;;;7.40;;
11524;SDS011;5819;49.648;8.330;2023-09-30T08:10:22;14.30;;;7.95;;
11524;SDS011;5819;49.648;8.330;2023-09-30T08:12:50;13.27;;;7.15;;
11524;SDS011;5819;49.648;8.330;2023-09-30T08:15:18;14.77;;;7.50;;
11524;SDS011;5819;49.648;8.330;2023-09-30T08:17:47;11.20;;;6.53;;
11524;SDS011;5819;49.648;8.330;2023-09-30T08:20:15;10.10;;;6.65;;
11524;SDS011;5819;49.648;8.330;2023-09-30T08:22:44;8.90;;;5.32;;
11524;SDS011;5819;49.648;8.330;2023-09-30T08:25:12;19.50;;;7.32;;
11524;SDS011;5819;49.648;8.330;2023-09-30T08:27:40;13.65;;;7.28;;
11524;SDS011;5819;49.648;8.330;2023-09-30T08:30:09;10.93;;;6.65;;
11524;SDS011;5819;49.648;8.330;2023-09-30T08:32:37;10.85;;;5.90;;
11524;SDS011;5819;49.648;8.330;2023-09-30T08:35:07;12.50;;;5.90;;
11524;SDS011;5819;49.648;8.330;2023-09-30T08:37:36;13.15;;;6.93;;
11524;SDS011;5819;49.648;8.330;2023-09-30T08:40:05;12.52;;;5.90;;
11524;SDS011;5819;49.648;8.330;2023-09-30T08:42:36;10.25;;;5.88;;
11524;SDS011;5819;49.648;8.330;2023-09-30T08:45:08;11.50;;;5.40;;
11524;SDS011;5819;49.648;8.330;2023-09-30T08:47:41;11.82;;;5.30;;
11524;SDS011;5819;49.648;8.330;2023-09-30T08:50:11;11.65;;;4.63;;
11524;SDS011;5819;49.648;8.330;2023-09-30T08:52:41;10.20;;;5.18;;
11524;SDS011;5819;49.648;8.330;2023-09-30T08:55:10;7.75;;;4.90;;
11524;SDS011;5819;49.648;8.330;2023-09-30T08:57:40;9.32;;;5.30;;
11524;SDS011;5819;49.648;8.330;2023-09-30T09:00:09;8.65;;;4.10;;
11524;SDS011;5819;49.648;8.330;2023-09-30T09:02:40;10.73;;;5.05;;
11524;SDS011;5819;49.648;8.330;2023-09-30T09:05:11;12.82;;;5.22;;
11524;SDS011;5819;49.648;8.330;2023-09-30T09:07:39;15.95;;;5.75;;
11524;SDS011;5819;49.648;8.330;2023-09-30T09:10:09;9.27;;;5.55;;
11524;SDS011;5819;49.648;8.330;2023-09-30T09:12:40;8.63;;;5.60;;
11524;SDS011;5819;49.648;8.330;2023-09-30T09:15:19;10.38;;;5.80;;
11524;SDS011;5819;49.648;8.330;2023-09-30T09:17:48;12.18;;;5.47;;
11524;SDS011;5819;49.648;8.330;2023-09-30T09:20:19;9.98;;;5.35;;
11524;SDS011;5819;49.648;8.330;2023-09-30T09:22:49;8.90;;;4.88;;
11524;SDS011;5819;49.648;8.330;2023-09-30T09:25:21;11.00;;;4.88;;
11524;SDS011;5819;49.648;8.330;2023-09-30T09:27:50;8.65;;;4.97;;
11524;SDS011;5819;49.648;8.330;2023-09-30T09:30:19;8.68;;;4.40;;
11524;SDS011;5819;49.648;8.330;2023-09-30T09:32:58;7.38;;;4.47;;
11524;SDS011;5819;49.648;8.330;2023-09-30T09:35:29;8.60;;;4.60;;
11524;SDS011;5819;49.648;8.330;2023-09-30T09:38:00;8.00;;;4.57;;
11524;SDS011;5819;49.648;8.330;2023-09-30T09:40:29;7.47;;;4.03;;
11524;SDS011;5819;49.648;8.330;2023-09-30T09:42:59;7.43;;;4.03;;
11524;SDS011;5819;49.648;8.330;2023-09-30T09:45:32;7.72;;;4.38;;
11524;SDS011;5819;49.648;8.330;2023-09-30T09:48:01;8.45;;;4.88;;
11524;SDS011;5819;49.648;8.330;2023-09-30T09:50:33;9.20;;;4.45;;
11524;SDS011;5819;49.648;8.330;2023-09-30T09:53:03;9.70;;;5.20;;
11524;SDS011;5819;49.648;8.330;2023-09-30T09:55:32;7.88;;;4.60;;
11524;SDS011;5819;49.648;8.330;2023-09-30T09:58:01;8.45;;;4.47;;
11524;SDS011;5819;49.648;8.330;2023-09-30T10:00:30;7.95;;;3.95;;
11524;SDS011;5819;49.648;8.330;2023-09-30T10:02:59;9.65;;;4.72;;
11524;SDS011;5819;49.648;8.330;2023-09-30T10:05:27;5.80;;;3.83;;
11524;SDS011;5819;49.648;8.330;2023-09-30T10:07:59;8.88;;;4.40;;
11524;SDS011;5819;49.648;8.330;2023-09-30T10:10:30;11.50;;;4.88;;
11524;SDS011;5819;49.648;8.330;2023-09-30T10:13:03;8.45;;;4.90;;
11524;SDS011;5819;49.648;8.330;2023-09-30T10:15:36;8.63;;;5.47;;
11524;SDS011;5819;49.648;8.330;2023-09-30T10:18:10;10.25;;;4.93;;
11524;SDS011;5819;49.648;8.330;2023-09-30T10:20:42;12.05;;;5.35;;
11524;SDS011;5819;49.648;8.330;2023-09-30T10:23:19;9.75;;;4.20;;
11524;SDS011;5819;49.648;8.330;2023-09-30T10:26:14;8.90;;;4.40;;
11524;SDS011;5819;49.648;8.330;2023-09-30T10:28:44;10.07;;;4.63;;
11524;SDS011;5819;49.648;8.330;2023-09-30T10:31:14;9.80;;;4.68;;
11524;SDS011;5819;49.648;8.330;2023-09-30T10:36:49;8.60;;;4.25;;
11524;SDS011;5819;49.648;8.330;2023-09-30T10:42:47;7.63;;;4.38;;
11524;SDS011;5819;49.648;8.330;2023-09-30T10:55:36;9.90;;;4.93;;
11524;SDS011;5819;49.648;8.330;2023-09-30T10:58:06;7.93;;;4.30;;
11524;SDS011;5819;49.648;8.330;2023-09-30T11:00:34;9.57;;;4.53;;
11524;SDS011;5819;49.648;8.330;2023-09-30T11:03:02;8.07;;;4.43;;
11524;SDS011;5819;49.648;8.330;2023-09-30T11:05:32;10.10;;;4.75;;
11524;SDS011;5819;49.648;8.330;2023-09-30T11:08:21;11.27;;;3.92;;
11524;SDS011;5819;49.648;8.330;2023-09-30T11:10:49;10.02;;;4.65;;
11524;SDS011;5819;49.648;8.330;2023-09-30T11:13:19;9.25;;;4.55;;
11524;SDS011;5819;49.648;8.330;2023-09-30T11:15:53;7.10;;;4.60;;
11524;SDS011;5819;49.648;8.330;2023-09-30T11:18:28;9.20;;;4.97;;
11524;SDS011;5819;49.648;8.330;2023-09-30T11:21:04;8.75;;;4.55;;
11524;SDS011;5819;49.648;8.330;2023-09-30T11:23:34;12.25;;;5.15;;
11524;SDS011;5819;49.648;8.330;2023-09-30T11:26:03;9.60;;;4.88;;
11524;SDS011;5819;49.648;8.330;2023-09-30T11:28:37;9.50;;;5.07;;
11524;SDS011;5819;49.648;8.330;2023-09-30T11:31:10;12.00;;;6.97;;
11524;SDS011;5819;49.648;8.330;2023-09-30T11:33:47;11.82;;;4.55;;
11524;SDS011;5819;49.648;8.330;2023-09-30T11:36:18;9.60;;;5.57;;
11524;SDS011;5819;49.648;8.330;2023-09-30T11:38:48;7.80;;;4.60;;
11524;SDS011;5819;49.648;8.330;2023-09-30T11:41:19;8.57;;;5.07;;
11524;SDS011;5819;49.648;8.330;2023-09-30T11:43:59;8.18;;;4.85;;
11524;SDS011;5819;49.648;8.330;2023-09-30T11:46:31;9.95;;;5.07;;
11524;SDS011;5819;49.648;8.330;2023-09-30T11:49:01;10.57;;;5.05;;
11524;SDS011;5819;49.648;8.330;2023-09-30T11:51:42;8.35;;;4.95;;
11524;SDS011;5819;49.648;8.330;2023-09-30T11:54:11;7.97;;;5.00;;
11524;SDS011;5819;49.648;8.330;2023-09-30T11:56:42;8.70;;;5.10;;
11524;SDS011;5819;49.648;8.330;2023-09-30T11:59:13;7.63;;;5.10;;
11524;SDS011;5819;49.648;8.330;2023-09-30T12:01:41;8.88;;;4.72;;
11524;SDS011;5819;49.648;8.330;2023-09-30T12:04:14;8.68;;;4.90;;
11524;SDS011;5819;49.648;8.330;2023-09-30T12:06:44;7.60;;;4.75;;
11524;SDS011;5819;49.648;8.330;2023-09-30T12:09:13;8.30;;;4.68;;
11524;SDS011;5819;49.648;8.330;2023-09-30T12:11:41;10.57;;;4.38;;
11524;SDS011;5819;49.648;8.330;2023-09-30T12:14:12;7.03;;;4.43;;
11524;SDS011;5819;49.648;8.330;2023-09-30T12:16:41;9.77;;;4.68;;
11524;SDS011;5819;49.648;8.330;2023-09-30T12:19:11;5.93;;;3.95;;
11524;SDS011;5819;49.648;8.330;2023-09-30T12:21:42;9.88;;;5.05;;
11524;SDS011;5819;49.648;8.330;2023-09-30T12:24:13;8.93;;;5.40;;
11524;SDS011;5819;49.648;8.330;2023-09-30T12:26:43;7.40;;;4.70;;
11524;SDS011;5819;49.648;8.330;2023-09-30T12:29:15;8.73;;;4.97;;
11524;SDS011;5819;49.648;8.330;2023-09-30T12:31:44;11.00;;;5.45;;
11524;SDS011;5819;49.648;8.330;2023-09-30T12:34:19;11.32;;;5.53;;
11524;SDS011;5819;49.648;8.330;2023-09-30T12:36:49;9.32;;;4.88;;
11524;SDS011;5819;49.648;8.330;2023-09-30T12:39:18;11.48;;;5.60;;
11524;SDS011;5819;49.648;8.330;2023-09-30T12:41:52;8.18;;;4.72;;
11524;SDS011;5819;49.648;8.330;2023-09-30T12:44:23;9.13;;;5.45;;
11524;SDS011;5819;49.648;8.330;2023-09-30T12:46:51;8.63;;;5.05;;
11524;SDS011;5819;49.648;8.330;2023-09-30T12:49:20;8.95;;;5.13;;
11524;SDS011;5819;49.648;8.330;2023-09-30T12:51:48;11.05;;;6.15;;
11524;SDS011;5819;49.648;8.330;2023-09-30T12:54:16;9.23;;;5.30;;
11524;SDS011;5819;49.648;8.330;2023-09-30T12:56:45;14.40;;;5.47;;
11524;SDS011;5819;49.648;8.330;2023-09-30T12:59:15;8.60;;;5.57;;
11524;SDS011;5819;49.648;8.330;2023-09-30T13:01:46;12.35;;;5.28;;
11524;SDS011;5819;49.648;8.330;2023-09-30T13:04:15;11.40;;;5.32;;
11524;SDS011;5819;49.648;8.330;2023-09-30T13:06:45;9.68;;;5.30;;
11524;SDS011;5819;49.648;8.330;2023-09-30T13:09:16;7.78;;;4.90;;
11524;SDS011;5819;49.648;8.330;2023-09-30T13:11:46;8.88;;;5.60;;
11524;SDS011;5819;49.648;8.330;2023-09-30T13:14:15;10.75;;;5.28;;
11524;SDS011;5819;49.648;8.330;2023-09-30T13:16:46;8.48;;;5.15;;
11524;SDS011;5819;49.648;8.330;2023-09-30T13:19:15;9.20;;;5.43;;
11524;SDS011;5819;49.648;8.330;2023-09-30T13:21:48;9.65;;;5.18;;
11524;SDS011;5819;49.648;8.330;2023-09-30T13:24:18;9.63;;;5.00;;
11524;SDS011;5819;49.648;8.330;2023-09-30T13:26:47;10.90;;;5.60;;
11524;SDS011;5819;49.648;8.330;2023-09-30T13:29:19;10.55;;;5.15;;
11524;SDS011;5819;49.648;8.330;2023-09-30T13:31:49;10.18;;;5.22;;
11524;SDS011;5819;49.648;8.330;2023-09-30T13:34:18;8.55;;;5.22;;
11524;SDS011;5819;49.648;8.330;2023-09-30T13:36:47;9.02;;;5.63;;
11524;SDS011;5819;49.648;8.330;2023-09-30T13:39:16;7.50;;;4.97;;
11524;SDS011;5819;49.648;8.330;2023-09-30T13:41:46;9.73;;;5.47;;
11524;SDS011;5819;49.648;8.330;2023-09-30T13:44:15;7.93;;;5.38;;
11524;SDS011;5819;49.648;8.330;2023-09-30T13:46:45;8.43;;;5.10;;
11524;SDS011;5819;49.648;8.330;2023-09-30T13:49:15;8.10;;;4.82;;
11524;SDS011;5819;49.648;8.330;2023-09-30T13:51:44;8.88;;;6.03;;
11524;SDS011;5819;49.648;8.330;2023-09-30T13:54:14;14.43;;;6.00;;
11524;SDS011;5819;49.648;8.330;2023-09-30T13:56:46;11.15;;;5.78;;
11524;SDS011;5819;49.648;8.330;2023-09-30T13:59:15;9.52;;;5.18;;
11524;SDS011;5819;49.648;8.330;2023-09-30T14:01:43;10.55;;;5.82;;
11524;SDS011;5819;49.648;8.330;2023-09-30T14:04:12;9.85;;;4.93;;
11524;SDS011;5819;49.648;8.330;2023-09-30T14:06:44;10.00;;;5.63;;
11524;SDS011;5819;49.648;8.330;2023-09-30T14:09:15;7.45;;;4.65;;
11524;SDS011;5819;49.648;8.330;2023-09-30T14:11:48;9.90;;;5.50;;
11524;SDS011;5819;49.648;8.330;2023-09-30T14:14:17;8.10;;;5.10;;
11524;SDS011;5819;49.648;8.330;2023-09-30T14:16:46;10.57;;;6.03;;
11524;SDS011;5819;49.648;8.330;2023-09-30T14:19:16;8.38;;;5.78;;
11524;SDS011;5819;49.648;8.330;2023-09-30T14:21:46;10.60;;;6.10;;
11524;SDS011;5819;49.648;8.330;2023-09-30T14:24:16;11.80;;;6.35;;
11524;SDS011;5819;49.648;8.330;2023-09-30T14:26:45;8.38;;;5.95;;
11524;SDS011;5819;49.648;8.330;2023-09-30T14:29:14;11.52;;;5.95;;
11524;SDS011;5819;49.648;8.330;2023-09-30T14:31:43;12.40;;;6.25;;
11524;SDS011;5819;49.648;8.330;2023-09-30T14:34:12;8.27;;;5.30;;
11524;SDS011;5819;49.648;8.330;2023-09-30T14:36:43;10.07;;;5.88;;
11524;SDS011;5819;49.648;8.330;2023-09-30T14:39:13;12.10;;;6.50;;
11524;SDS011;5819;49.648;8.330;2023-09-30T14:41:43;11.13;;;6.28;;
11524;SDS011;5819;49.648;8.330;2023-09-30T14:44:13;11.38;;;6.10;;
11524;SDS011;5819;49.648;8.330;2023-09-30T14:46:41;11.65;;;6.35;;
11524;SDS011;5819;49.648;8.330;2023-09-30T14:49:11;11.15;;;6.05;;
11524;SDS011;5819;49.648;8.330;2023-09-30T14:51:40;8.75;;;5.60;;
11524;SDS011;5819;49.648;8.330;2023-09-30T14:54:10;9.60;;;5.45;;
11524;SDS011;5819;49.648;8.330;2023-09-30T14:56:39;15.32;;;6.55;;
11524;SDS011;5819;49.648;8.330;2023-09-30T14:59:08;9.93;;;5.43;;
11524;SDS011;5819;49.648;8.330;2023-09-30T15:01:36;11.50;;;5.95;;
11524;SDS011;5819;49.648;8.330;2023-09-30T15:04:05;9.27;;;5.68;;
11524;SDS011;5819;49.648;8.330;2023-09-30T15:06:36;10.27;;;6.00;;
11524;SDS011;5819;49.648;8.330;2023-09-30T15:09:05;8.63;;;5.22;;
11524;SDS011;5819;49.648;8.330;2023-09-30T15:11:37;12.85;;;6.07;;
11524;SDS011;5819;49.648;8.330;2023-09-30T15:14:07;10.15;;;5.72;;
11524;SDS011;5819;49.648;8.330;2023-09-30T15:16:36;9.13;;;5.40;;
11524;SDS011;5819;49.648;8.330;2023-09-30T15:19:05;9.75;;;5.90;;
11524;SDS011;5819;49.648;8.330;2023-09-30T15:21:34;11.00;;;5.97;;
11524;SDS011;5819;49.648;8.330;2023-09-30T15:24:06;12.85;;;6.25;;
11524;SDS011;5819;49.648;8.330;2023-09-30T15:26:35;11.18;;;5.85;;